createdAt,value
2023-03-10T00:03:04.740Z,6.20
2023-03-10T00:07:54.074Z,6.20
2023-03-10T00:12:43.914Z,6.20
2023-03-10T00:17:29.504Z,6.40
2023-03-10T00:22:16.414Z,6.40
2023-03-10T00:27:05.962Z,6.50
2023-03-10T00:31:53.956Z,6.40
2023-03-10T00:36:41.710Z,6.30
2023-03-10T00:41:30.782Z,6.30
2023-03-10T00:46:14.299Z,6.30
2023-03-10T00:50:57.853Z,6.40
2023-03-10T00:55:45.268Z,6.50
2023-03-10T01:00:31.773Z,6.60
2023-03-10T01:05:21.705Z,6.60
2023-03-10T01:10:07.516Z,6.70
2023-03-10T01:14:55.354Z,6.70
2023-03-10T01:19:43.649Z,6.90
2023-03-10T01:24:33.717Z,6.90
2023-03-10T01:29:19.041Z,7.00
2023-03-10T01:34:07.878Z,7.00
2023-03-10T01:38:58.120Z,7.00
2023-03-10T01:43:45.929Z,7.00
2023-03-10T01:48:34.926Z,7.10
2023-03-10T01:53:22.214Z,7.20
2023-03-10T01:58:08.925Z,7.30
2023-03-10T02:03:10.381Z,7.20
2023-03-10T02:07:58.540Z,7.30
2023-03-10T02:12:59.911Z,7.40
2023-03-10T02:17:53.787Z,7.50
2023-03-10T02:22:40.117Z,7.60
2023-03-10T02:27:32.132Z,7.80
2023-03-10T02:32:16.830Z,8.00
2023-03-10T02:37:03.853Z,8.10
2023-03-10T02:41:53.719Z,8.10
2023-03-10T02:46:40.935Z,8.10
2023-03-10T02:51:30.350Z,8.10
2023-03-10T02:56:16.812Z,8.00
2023-03-10T03:01:06.131Z,7.90
2023-03-10T03:06:14.318Z,7.80
2023-03-10T03:11:10.033Z,7.70
2023-03-10T03:16:04.054Z,7.70
2023-03-10T03:20:53.014Z,7.60
2023-03-10T03:25:40.342Z,7.60
2023-03-10T03:30:27.214Z,7.60
2023-03-10T03:35:27.704Z,7.60
2023-03-10T03:40:15.697Z,7.50
2023-03-10T03:45:08.152Z,7.60
2023-03-10T03:49:51.920Z,7.60
2023-03-10T03:54:44.480Z,7.50
2023-03-10T03:59:28.075Z,7.60
2023-03-10T04:04:17.250Z,7.50
2023-03-10T04:09:05.434Z,7.50
2023-03-10T04:13:53.727Z,7.30
2023-03-10T04:18:41.909Z,7.40
2023-03-10T04:23:30.270Z,7.40
2023-03-10T04:28:17.076Z,7.70
2023-03-10T04:33:05.179Z,7.60
2023-03-10T04:37:51.044Z,7.60
2023-03-10T04:42:39.482Z,7.60
2023-03-10T04:47:28.977Z,7.70
2023-03-10T04:52:16.988Z,7.40
2023-03-10T04:57:03.836Z,7.70
2023-03-10T05:01:52.462Z,7.70
2023-03-10T05:06:39.889Z,7.80
2023-03-10T05:11:43.806Z,7.80
2023-03-10T05:16:31.511Z,7.90
2023-03-10T05:21:19.165Z,7.90
2023-03-10T05:26:13.038Z,7.90
2023-03-10T05:30:56.523Z,7.90
2023-03-10T05:35:46.205Z,8.00
2023-03-10T05:40:32.381Z,8.00
2023-03-10T05:45:21.025Z,8.10
2023-03-10T05:50:11.709Z,8.10
2023-03-10T05:54:55.351Z,8.20
2023-03-10T05:59:58.785Z,8.30
2023-03-10T06:04:48.891Z,8.30
2023-03-10T06:09:41.440Z,8.40
2023-03-10T06:14:25.531Z,8.50
2023-03-10T06:19:18.088Z,8.60
2023-03-10T06:24:01.613Z,8.70
2023-03-10T06:28:48.724Z,8.80
2023-03-10T06:33:34.695Z,8.80
2023-03-10T06:38:26.787Z,8.90
2023-03-10T06:43:12.320Z,9.00
2023-03-10T06:48:01.880Z,9.00
2023-03-10T06:53:03.049Z,9.20
2023-03-10T06:57:57.217Z,9.20
2023-03-10T07:02:42.203Z,9.10
2023-03-10T07:07:28.748Z,9.10
2023-03-10T07:12:15.769Z,9.10
2023-03-10T07:17:26.152Z,9.10
2023-03-10T07:22:11.396Z,9.00
2023-03-10T07:26:54.947Z,9.00
2023-03-10T07:31:46.476Z,9.20
2023-03-10T07:36:32.227Z,9.30
2023-03-10T07:41:23.280Z,9.60
2023-03-10T07:46:07.992Z,9.80
2023-03-10T07:50:58.246Z,9.80
2023-03-10T07:55:46.529Z,10.00
2023-03-10T08:00:32.088Z,10.10
2023-03-10T08:05:18.966Z,10.30
2023-03-10T08:10:27.608Z,10.30
2023-03-10T08:15:28.184Z,10.40
2023-03-10T08:20:16.354Z,10.60
2023-03-10T08:25:03.936Z,10.70
2023-03-10T08:29:52.553Z,10.80
2023-03-10T08:34:41.814Z,10.90
2023-03-10T08:39:43.738Z,11.20
2023-03-10T08:44:33.371Z,11.40
2023-03-10T08:49:21.290Z,11.60
2023-03-10T08:54:09.201Z,11.70
2023-03-10T08:58:59.127Z,11.90
2023-03-10T09:03:45.440Z,12.00
2023-03-10T09:08:34.603Z,12.30
2023-03-10T09:13:36.919Z,12.70
2023-03-10T09:18:26.215Z,12.70
2023-03-10T09:28:17.423Z,12.80
2023-03-10T09:38:08.367Z,12.40
2023-03-10T09:43:27.076Z,12.20
2023-03-10T09:48:50.932Z,12.10
2023-03-10T09:53:57.436Z,12.80
2023-03-10T09:59:29.888Z,13.60
2023-03-10T10:04:28.426Z,14.00
2023-03-10T10:09:24.006Z,14.10
2023-03-10T10:14:48.058Z,14.30
2023-03-10T10:19:49.418Z,14.40
2023-03-10T10:24:33.428Z,15.00
2023-03-10T10:29:24.229Z,15.10
2023-03-10T10:34:22.444Z,14.40
2023-03-10T10:39:32.459Z,14.20
2023-03-10T10:44:19.794Z,14.20
2023-03-10T10:49:23.677Z,14.70
2023-03-10T10:54:28.453Z,14.20
2023-03-10T10:59:31.739Z,13.90
2023-03-10T11:04:17.459Z,13.90
2023-03-10T11:09:20.496Z,13.90
2023-03-10T11:14:22.452Z,13.80
2023-03-10T11:19:30.173Z,13.80
2023-03-10T11:24:23.515Z,13.80
2023-03-10T11:29:31.885Z,13.70
2023-03-10T11:34:38.573Z,14.00
2023-03-10T11:39:46.092Z,14.00
2023-03-10T11:44:47.419Z,13.80
2023-03-10T11:49:38.660Z,13.90
2023-03-10T11:54:27.154Z,13.90
2023-03-10T11:59:18.155Z,14.30
2023-03-10T12:04:13.640Z,14.70
2023-03-10T12:09:09.878Z,14.90
2023-03-10T12:13:58.083Z,14.90
2023-03-10T12:18:54.646Z,14.80
2023-03-10T12:24:01.270Z,14.50
2023-03-10T12:29:27.057Z,14.10
2023-03-10T12:34:23.957Z,13.60
2023-03-10T12:39:44.504Z,13.20
2023-03-10T12:44:57.100Z,13.30
2023-03-10T12:50:04.714Z,13.60
2023-03-10T12:55:11.552Z,13.60
2023-03-10T13:00:05.376Z,13.40
2023-03-10T13:04:53.537Z,13.50
2023-03-10T13:09:42.353Z,13.90
2023-03-10T13:14:41.482Z,14.20
2023-03-10T13:19:28.783Z,14.20
2023-03-10T13:24:29.829Z,14.50
2023-03-10T13:29:23.971Z,14.70
2023-03-10T13:34:22.959Z,14.80
2023-03-10T13:39:16.486Z,15.00
2023-03-10T13:44:03.237Z,15.10
2023-03-10T13:48:51.031Z,15.10
2023-03-10T13:53:36.540Z,15.00
2023-03-10T13:58:23.002Z,14.80
2023-03-10T14:03:15.639Z,14.50
2023-03-10T14:08:02.476Z,14.40
2023-03-10T14:12:49.900Z,14.40
2023-03-10T14:17:37.685Z,14.10
2023-03-10T14:22:41.551Z,13.80
2023-03-10T14:27:29.238Z,11.60
2023-03-10T14:32:16.230Z,9.90
2023-03-10T14:37:18.607Z,9.20
2023-03-10T14:42:38.284Z,9.00
2023-03-10T14:47:47.346Z,9.00
2023-03-10T14:52:34.836Z,9.00
2023-03-10T14:57:23.652Z,8.90
2023-03-10T15:07:31.454Z,8.60
2023-03-10T15:12:20.965Z,9.00
2023-03-10T15:18:09.308Z,9.30
2023-03-10T15:23:48.587Z,10.20
2023-03-10T15:33:55.140Z,10.80
2023-03-10T15:38:41.001Z,11.20
2023-03-10T15:43:29.498Z,11.30
2023-03-10T15:48:18.987Z,11.00
2023-03-10T15:53:09.077Z,10.90
2023-03-10T15:57:56.233Z,10.80
2023-03-10T16:02:40.451Z,10.70
2023-03-10T16:07:27.642Z,10.30
2023-03-10T16:12:16.590Z,10.20
2023-03-10T16:17:07.304Z,9.80
2023-03-10T16:21:53.846Z,9.40
2023-03-10T16:26:42.461Z,9.40
2023-03-10T16:31:34.529Z,9.20
2023-03-10T16:37:20.176Z,9.10
2023-03-10T16:42:09.442Z,9.20
2023-03-10T16:46:56.444Z,9.10
2023-03-10T16:51:45.041Z,9.10
2023-03-10T16:56:38.448Z,9.00
2023-03-10T17:01:42.263Z,8.90
2023-03-10T17:06:38.226Z,8.70
2023-03-10T17:11:49.801Z,8.70
2023-03-10T17:16:34.800Z,8.60
2023-03-10T17:21:25.804Z,8.50
2023-03-10T17:26:10.445Z,8.40
2023-03-10T17:30:55.578Z,8.20
2023-03-10T17:35:48.970Z,8.10
2023-03-10T17:40:33.970Z,8.00
2023-03-10T17:45:19.318Z,7.90
2023-03-10T17:50:09.832Z,7.70
2023-03-10T17:54:57.492Z,7.50
2023-03-10T17:59:44.346Z,7.40
2023-03-10T18:04:35.987Z,7.40
2023-03-10T18:09:24.402Z,7.40
2023-03-10T18:14:08.670Z,7.20
2023-03-10T18:18:56.716Z,7.20
2023-03-10T18:23:46.748Z,7.20
2023-03-10T18:28:32.991Z,7.20
2023-03-10T18:33:20.793Z,7.20
2023-03-10T18:38:07.985Z,7.00
2023-03-10T18:43:00.677Z,7.10
2023-03-10T18:47:46.895Z,7.10
2023-03-10T18:52:34.292Z,7.20
2023-03-10T18:57:21.824Z,7.20
2023-03-10T19:02:22.439Z,7.20
2023-03-10T19:07:32.976Z,7.30
2023-03-10T19:12:16.839Z,7.30
2023-03-10T19:17:04.927Z,7.40
2023-03-10T19:21:54.219Z,7.40
2023-03-10T19:26:43.974Z,7.40
2023-03-10T19:31:42.821Z,7.40
2023-03-10T19:36:52.137Z,7.50
2023-03-10T19:41:35.971Z,7.60
2023-03-10T19:46:25.419Z,7.60
2023-03-10T19:51:27.480Z,7.60
2023-03-10T19:56:21.607Z,7.60
2023-03-10T20:36:52.238Z,7.20
2023-03-10T20:42:12.223Z,7.00
2023-03-10T20:52:21.070Z,6.60
2023-03-10T20:57:21.534Z,6.40
2023-03-10T21:07:57.555Z,6.20
2023-03-10T21:12:47.685Z,6.10
2023-03-10T21:17:56.472Z,6.10
2023-03-10T21:29:37.448Z,5.90
2023-03-10T21:41:23.497Z,5.80
2023-03-10T21:47:25.293Z,5.70
2023-03-10T21:53:20.908Z,5.60
2023-03-10T21:58:42.520Z,5.50
2023-03-10T22:09:22.395Z,5.30
2023-03-10T22:14:24.681Z,5.40
2023-03-10T22:19:13.925Z,5.30
2023-03-10T22:24:16.302Z,5.20
2023-03-10T22:29:24.155Z,5.20
2023-03-10T22:34:28.799Z,5.10
2023-03-10T22:39:16.912Z,5.00
2023-03-10T22:44:04.922Z,5.00
2023-03-10T22:48:52.478Z,4.90
2023-03-10T22:53:41.437Z,4.90
2023-03-10T22:58:27.919Z,4.80
2023-03-10T23:03:42.855Z,4.70
2023-03-10T23:09:00.363Z,4.70
2023-03-10T23:13:50.990Z,4.60
2023-03-10T23:19:01.890Z,4.50
2023-03-10T23:29:41.018Z,4.50
2023-03-10T23:44:54.148Z,3.40
2023-03-10T23:50:38.405Z,2.80
2023-03-10T23:56:35.836Z,2.30
